Time;durP1;ratioP1;P1;durP2;ratioP2;P2;SDS_P1;SDS_P2;PMS_P1;PMS_P2;Temp;Humidity;BMP_temperature;BMP_pressure;BME280_temperature;BME280_humidity;BME280_pressure;Samples;Min_cycle;Max_cycle;Signal;HPM_P1;HPM_P2
2024/05/03 00:02:04;;;;;;;9.97;8.63;;;16.30;99.90;;;;;;5447973;26;20240;-80
2024/05/03 00:04:30;;;;;;;10.03;8.90;;;16.20;99.90;;;;;;5446602;26;20240;-81
2024/05/03 00:06:55;;;;;;;11.00;8.60;;;16.20;99.90;;;;;;5448359;26;20287;-80
2024/05/03 00:09:21;;;;;;;10.80;8.47;;;16.10;99.90;;;;;;5448168;26;20236;-80
2024/05/03 00:11:46;;;;;;;10.40;7.80;;;16.00;99.90;;;;;;5448665;26;20279;-81
2024/05/03 00:14:12;;;;;;;10.50;7.77;;;16.00;99.90;;;;;;5444803;26;20243;-80
2024/05/03 00:16:37;;;;;;;9.23;7.27;;;15.90;99.90;;;;;;5447897;26;20357;-80
2024/05/03 00:19:03;;;;;;;9.33;7.97;;;15.80;99.90;;;;;;5443482;26;20237;-81
2024/05/03 00:21:28;;;;;;;10.03;7.90;;;15.90;99.90;;;;;;5411561;26;20249;-82
2024/05/03 00:23:54;;;;;;;9.97;7.60;;;15.90;99.90;;;;;;5447228;26;20279;-81
2024/05/03 00:26:19;;;;;;;10.30;8.13;;;15.90;99.90;;;;;;5448278;26;20287;-82
2024/05/03 00:28:45;;;;;;;8.73;7.60;;;15.90;99.90;;;;;;5446254;26;20290;-80
2024/05/03 00:31:11;;;;;;;8.60;7.47;;;15.90;99.90;;;;;;5416953;26;20245;-80
2024/05/03 00:33:36;;;;;;;9.77;8.10;;;15.90;99.90;;;;;;5445855;26;20423;-81
2024/05/03 00:36:02;;;;;;;8.70;7.80;;;15.70;99.90;;;;;;5448339;26;20243;-79
2024/05/03 00:38:27;;;;;;;13.00;8.87;;;15.70;99.90;;;;;;5446275;26;20270;-80
2024/05/03 00:40:53;;;;;;;11.93;9.30;;;15.70;99.90;;;;;;5437545;26;20638;-79
2024/05/03 00:43:19;;;;;;;13.63;9.23;;;15.80;99.90;;;;;;5414639;26;20271;-79
2024/05/03 00:45:44;;;;;;;11.07;9.53;;;15.90;99.90;;;;;;5441979;26;20281;-78
2024/05/03 00:48:10;;;;;;;9.10;7.93;;;15.80;99.90;;;;;;5424156;26;20413;-81
2024/05/03 00:50:36;;;;;;;10.37;8.07;;;15.80;99.90;;;;;;5451449;26;20334;-81
2024/05/03 00:53:02;;;;;;;10.23;8.13;;;15.80;99.90;;;;;;5452726;26;20341;-81
2024/05/03 00:55:30;;;;;;;8.60;7.70;;;15.80;99.90;;;;;;5461491;26;20243;-80
2024/05/03 00:57:56;;;;;;;12.90;8.17;;;15.80;99.90;;;;;;5416515;26;20248;-80
2024/05/03 01:00:23;;;;;;;10.90;7.57;;;15.80;99.90;;;;;;5448721;26;20243;-81
2024/05/03 01:02:50;;;;;;;10.27;7.97;;;15.90;99.90;;;;;;5449055;26;20286;-80
2024/05/03 01:05:15;;;;;;;8.20;7.30;;;15.80;99.90;;;;;;5449543;26;20370;-82
2024/05/03 01:07:42;;;;;;;9.17;7.43;;;15.80;99.90;;;;;;5449288;26;20251;-79
2024/05/03 01:10:08;;;;;;;9.90;7.60;;;15.80;99.90;;;;;;5446925;26;20286;-81
2024/05/03 01:12:34;;;;;;;9.17;7.90;;;15.80;99.90;;;;;;5411712;26;20311;-81
2024/05/03 01:15:05;;;;;;;10.00;8.27;;;15.80;99.90;;;;;;5425193;26;20358;-81
2024/05/03 01:17:30;;;;;;;9.23;7.43;;;15.80;99.90;;;;;;5412085;26;20221;-80
2024/05/03 01:19:56;;;;;;;8.70;7.80;;;15.70;99.90;;;;;;5444872;26;20244;-80
2024/05/03 01:22:23;;;;;;;9.60;7.40;;;15.70;99.90;;;;;;5448138;26;20224;-80
2024/05/03 01:24:49;;;;;;;8.67;7.13;;;15.70;99.90;;;;;;5446239;26;20418;-79
2024/05/03 01:27:15;;;;;;;9.83;7.40;;;15.60;99.90;;;;;;5447406;26;20236;-80
2024/05/03 01:29:40;;;;;;;9.77;7.40;;;15.70;99.90;;;;;;5446022;26;20279;-81
2024/05/03 01:32:06;;;;;;;11.33;7.77;;;15.70;99.90;;;;;;5446731;26;20831;-82
2024/05/03 01:34:32;;;;;;;9.23;7.67;;;15.60;99.90;;;;;;5445141;26;20287;-81
2024/05/03 01:36:58;;;;;;;11.77;8.73;;;15.60;99.90;;;;;;5446463;26;20249;-81
2024/05/03 01:39:23;;;;;;;10.30;8.07;;;15.70;99.90;;;;;;5449991;26;20236;-80
2024/05/03 01:41:49;;;;;;;9.43;7.70;;;15.60;99.90;;;;;;5446663;26;20266;-82
2024/05/03 01:44:14;;;;;;;11.27;8.07;;;15.60;99.90;;;;;;5442148;26;20240;-79
2024/05/03 01:46:40;;;;;;;11.03;8.47;;;15.50;99.90;;;;;;5413241;26;20298;-79
2024/05/03 01:49:05;;;;;;;8.63;7.33;;;15.60;99.90;;;;;;5408608;26;20801;-81
2024/05/03 01:51:31;;;;;;;11.30;8.03;;;15.60;99.90;;;;;;5447446;26;20286;-81
2024/05/03 01:53:56;;;;;;;9.00;7.97;;;15.60;99.90;;;;;;5448135;26;20739;-79
2024/05/03 01:56:22;;;;;;;7.87;7.00;;;15.60;99.90;;;;;;5445584;26;20252;-81
2024/05/03 01:58:48;;;;;;;8.73;7.23;;;15.50;99.90;;;;;;5410571;26;20771;-80
2024/05/03 02:01:13;;;;;;;8.60;7.03;;;15.50;99.90;;;;;;5444502;26;20586;-81
2024/05/03 02:03:40;;;;;;;11.60;6.80;;;15.50;99.90;;;;;;5410781;26;20351;-81
2024/05/03 02:06:09;;;;;;;8.07;6.70;;;15.50;99.90;;;;;;5444754;26;20254;-80
2024/05/03 02:08:35;;;;;;;10.77;6.03;;;15.50;99.90;;;;;;5410211;26;20252;-80
2024/05/03 02:11:01;;;;;;;7.60;5.80;;;15.50;99.90;;;;;;5423663;26;20251;-81
2024/05/03 02:13:26;;;;;;;6.70;5.33;;;15.50;99.90;;;;;;5448034;26;20283;-80
2024/05/03 02:15:52;;;;;;;6.33;5.50;;;15.50;99.90;;;;;;5410037;26;20295;-81
2024/05/03 02:18:18;;;;;;;6.57;5.33;;;15.50;99.90;;;;;;5442770;26;20344;-81
2024/05/03 02:20:43;;;;;;;7.00;5.07;;;15.50;99.90;;;;;;5409840;26;20768;-81
2024/05/03 02:23:09;;;;;;;5.90;5.27;;;15.40;99.90;;;;;;5446537;26;20242;-79
2024/05/03 02:25:34;;;;;;;7.33;5.30;;;15.40;99.90;;;;;;5410285;26;20333;-81
2024/05/03 02:28:00;;;;;;;6.60;5.77;;;15.40;99.90;;;;;;5446906;26;20239;-79
2024/05/03 02:30:25;;;;;;;6.50;5.30;;;15.40;99.90;;;;;;5438504;26;20240;-80
2024/05/03 02:32:51;;;;;;;5.87;5.27;;;15.40;99.90;;;;;;5420315;26;20331;-80
2024/05/03 02:35:16;;;;;;;6.83;6.10;;;15.40;99.90;;;;;;5427959;26;20348;-82
2024/05/03 02:37:42;;;;;;;6.30;5.70;;;15.40;99.90;;;;;;5446287;26;20235;-81
2024/05/03 02:40:08;;;;;;;6.83;5.33;;;15.40;99.90;;;;;;5410817;26;20660;-79
2024/05/03 02:42:33;;;;;;;7.50;5.90;;;15.30;99.90;;;;;;5410560;26;20581;-80
2024/05/03 02:44:59;;;;;;;5.90;5.07;;;15.30;99.90;;;;;;5440205;26;20274;-80
2024/05/03 02:47:27;;;;;;;6.50;5.50;;;15.20;99.90;;;;;;5413087;26;20253;-81
2024/05/03 02:49:52;;;;;;;8.70;5.70;;;15.30;99.90;;;;;;5446303;26;20251;-80
2024/05/03 02:52:18;;;;;;;5.93;5.40;;;15.30;99.90;;;;;;5450090;26;20266;-81
2024/05/03 02:54:44;;;;;;;7.03;5.57;;;15.20;99.90;;;;;;5448162;26;20286;-81
2024/05/03 02:57:09;;;;;;;7.37;5.50;;;15.20;99.90;;;;;;5413620;26;20260;-80
2024/05/03 02:59:35;;;;;;;6.87;5.50;;;15.20;99.90;;;;;;5441503;26;20275;-81
2024/05/03 03:02:01;;;;;;;6.77;5.73;;;15.20;99.90;;;;;;5413420;26;20779;-79
2024/05/03 03:04:26;;;;;;;6.70;5.97;;;15.10;99.90;;;;;;5410232;26;20284;-79
2024/05/03 03:06:52;;;;;;;8.10;5.83;;;15.20;99.90;;;;;;5447942;26;20579;-81
2024/05/03 03:09:17;;;;;;;6.63;5.67;;;15.10;99.90;;;;;;5447554;26;20350;-81
2024/05/03 03:11:44;;;;;;;8.03;5.47;;;15.10;99.90;;;;;;5440690;26;20659;-80
2024/05/03 03:14:11;;;;;;;6.07;5.47;;;15.00;99.90;;;;;;5445441;26;20277;-81
2024/05/03 03:16:38;;;;;;;6.77;5.47;;;15.10;99.90;;;;;;5448062;26;20223;-81
2024/05/03 03:19:04;;;;;;;8.47;6.00;;;15.10;99.90;;;;;;5448442;26;20314;-81
2024/05/03 03:21:30;;;;;;;6.43;5.30;;;15.00;99.90;;;;;;5446984;26;20243;-80
2024/05/03 03:23:55;;;;;;;6.90;5.90;;;15.00;99.90;;;;;;5452149;26;20247;-80
2024/05/03 03:26:21;;;;;;;9.10;5.63;;;14.90;99.90;;;;;;5450141;26;20282;-81
2024/05/03 03:28:51;;;;;;;9.57;6.20;;;14.90;99.90;;;;;;5446578;26;20249;-82
2024/05/03 03:31:17;;;;;;;9.07;6.00;;;14.90;99.90;;;;;;5448108;26;20257;-78
2024/05/03 03:33:43;;;;;;;7.37;5.73;;;14.90;99.90;;;;;;5448404;26;20309;-79
2024/05/03 03:36:09;;;;;;;7.83;5.93;;;15.00;99.90;;;;;;5418306;26;20333;-80
2024/05/03 03:38:34;;;;;;;6.53;5.57;;;14.90;99.90;;;;;;5446692;26;20235;-80
2024/05/03 03:41:05;;;;;;;5.80;4.83;;;14.90;99.90;;;;;;5447434;26;20238;-80
2024/05/03 03:43:31;;;;;;;7.10;5.47;;;14.80;99.90;;;;;;5413490;26;20349;-80
2024/05/03 03:45:56;;;;;;;6.77;5.20;;;14.80;99.90;;;;;;5445082;26;20644;-81
2024/05/03 03:48:23;;;;;;;5.73;4.53;;;14.70;99.90;;;;;;5446301;26;20242;-81
2024/05/03 03:50:48;;;;;;;5.90;4.60;;;14.70;99.90;;;;;;5445574;26;20273;-80
2024/05/03 03:53:14;;;;;;;5.90;4.57;;;14.70;99.90;;;;;;5447039;26;20238;-79
2024/05/03 03:55:39;;;;;;;5.87;4.27;;;14.70;99.90;;;;;;5423515;26;20592;-81
2024/05/03 03:58:05;;;;;;;5.13;4.37;;;14.70;99.90;;;;;;5444397;26;20414;-81
2024/05/03 04:00:31;;;;;;;4.83;3.67;;;14.60;99.90;;;;;;5446920;26;20235;-79
2024/05/03 04:02:57;;;;;;;5.60;3.97;;;14.50;99.90;;;;;;5445963;26;20281;-81
2024/05/03 04:05:23;;;;;;;7.07;3.80;;;14.60;99.90;;;;;;5430986;26;20243;-80
2024/05/03 04:07:48;;;;;;;4.67;3.87;;;14.60;99.90;;;;;;5415292;26;20321;-80
2024/05/03 04:10:14;;;;;;;4.17;3.77;;;14.60;99.90;;;;;;5464533;26;20242;-82
2024/05/03 04:12:39;;;;;;;3.87;3.13;;;14.60;99.90;;;;;;5417716;26;20271;-79
2024/05/03 04:15:05;;;;;;;3.57;3.17;;;14.70;99.90;;;;;;5443435;26;20246;-81
2024/05/03 04:17:31;;;;;;;5.87;4.10;;;14.60;99.90;;;;;;5445580;26;20234;-81
2024/05/03 04:19:56;;;;;;;4.63;3.13;;;14.50;99.90;;;;;;5445307;26;21082;-80
2024/05/03 04:22:22;;;;;;;3.57;2.70;;;14.60;99.90;;;;;;5447177;26;20286;-81
2024/05/03 04:24:47;;;;;;;3.37;2.87;;;14.50;99.90;;;;;;5447265;26;20299;-81
2024/05/03 04:27:13;;;;;;;2.83;2.37;;;14.50;99.90;;;;;;5446998;26;20242;-80
2024/05/03 04:29:39;;;;;;;3.33;2.20;;;14.50;99.90;;;;;;5446882;26;20630;-81
2024/05/03 04:32:05;;;;;;;4.20;2.40;;;14.40;99.90;;;;;;5410498;26;20287;-80
2024/05/03 04:34:30;;;;;;;4.57;2.57;;;14.50;99.90;;;;;;5411418;26;20363;-81
2024/05/03 04:36:56;;;;;;;2.80;2.37;;;14.50;99.90;;;;;;5446618;26;20574;-81
2024/05/03 04:39:21;;;;;;;2.10;1.83;;;14.50;99.90;;;;;;5413280;26;20306;-81
2024/05/03 04:41:47;;;;;;;2.77;1.87;;;14.40;99.90;;;;;;5446128;26;20303;-82
2024/05/03 04:44:12;;;;;;;1.63;1.43;;;14.40;99.90;;;;;;5420119;26;20242;-81
2024/05/03 04:46:38;;;;;;;2.53;1.87;;;14.30;99.90;;;;;;5410911;26;20286;-81
2024/05/03 04:49:03;;;;;;;2.70;1.73;;;14.30;99.90;;;;;;5444907;26;20319;-80
2024/05/03 04:51:29;;;;;;;3.13;1.77;;;14.30;99.90;;;;;;5446813;26;20334;-81
2024/05/03 04:53:55;;;;;;;2.00;1.80;;;14.30;99.90;;;;;;5446095;26;20649;-81
2024/05/03 04:56:20;;;;;;;2.33;1.80;;;14.30;99.90;;;;;;5446245;26;20242;-81
2024/05/03 04:58:46;;;;;;;3.87;2.20;;;14.30;99.90;;;;;;5445380;26;20715;-81
2024/05/03 05:01:13;;;;;;;2.90;2.10;;;14.20;99.90;;;;;;5450044;26;20376;-79
2024/05/03 05:03:38;;;;;;;3.57;1.90;;;14.20;99.90;;;;;;5446747;26;20246;-81
2024/05/03 05:06:04;;;;;;;2.10;1.53;;;14.20;99.90;;;;;;5417276;26;20251;-81
2024/05/03 05:08:29;;;;;;;3.97;1.90;;;14.20;99.90;;;;;;5443858;26;20245;-79
2024/05/03 05:10:55;;;;;;;2.87;1.90;;;14.30;99.90;;;;;;5413939;26;20306;-79
2024/05/03 05:13:20;;;;;;;3.07;2.50;;;14.20;99.90;;;;;;5444951;26;20647;-81
2024/05/03 05:15:46;;;;;;;1.67;1.57;;;14.20;99.90;;;;;;5408351;26;20674;-79
2024/05/03 05:18:11;;;;;;;2.00;1.80;;;14.10;99.90;;;;;;5430843;26;20715;-81
2024/05/03 05:22:00;;;;;;;2.27;1.70;;;14.10;99.90;;;;;;5444820;26;20602;-80
2024/05/03 05:23:22;;;;;;;2.57;1.70;;;14.10;99.90;;;;;;5427933;26;20740;-80
2024/05/03 05:25:48;;;;;;;2.80;1.60;;;14.00;99.90;;;;;;5445624;26;20243;-81
2024/05/03 05:28:13;;;;;;;2.53;1.53;;;13.90;99.90;;;;;;5411673;26;20239;-80
2024/05/03 05:30:39;;;;;;;3.90;1.33;;;14.00;99.90;;;;;;5428539;26;20246;-80
2024/05/03 05:33:04;;;;;;;2.07;1.57;;;13.90;99.90;;;;;;5444348;26;20705;-80
2024/05/03 05:35:30;;;;;;;1.40;1.30;;;13.90;99.90;;;;;;5445633;26;20238;-81
2024/05/03 05:37:55;;;;;;;1.50;1.30;;;13.90;99.90;;;;;;5446140;26;20245;-81
2024/05/03 05:40:21;;;;;;;1.30;1.20;;;13.80;99.90;;;;;;5445606;26;20623;-81
2024/05/03 05:42:46;;;;;;;5.07;1.60;;;13.80;99.90;;;;;;5443879;26;20585;-79
2024/05/03 05:45:12;;;;;;;3.83;1.77;;;13.90;99.90;;;;;;5407134;26;20306;-81
2024/05/03 05:47:38;;;;;;;2.57;1.33;;;13.90;99.90;;;;;;5445104;26;20297;-80
2024/05/03 05:50:04;;;;;;;1.73;1.40;;;13.80;99.90;;;;;;5448309;26;20242;-81
2024/05/03 05:52:29;;;;;;;1.43;1.30;;;13.80;99.90;;;;;;5410092;26;20273;-81
2024/05/03 05:54:55;;;;;;;1.47;1.27;;;13.70;99.90;;;;;;5445119;26;20238;-81
2024/05/03 05:57:21;;;;;;;2.63;1.20;;;13.70;99.90;;;;;;5449196;26;20328;-80
2024/05/03 05:59:46;;;;;;;1.80;1.10;;;13.70;99.90;;;;;;5448740;26;20349;-81
2024/05/03 06:02:11;;;;;;;3.43;1.00;;;13.80;99.90;;;;;;5445921;26;20387;-82
2024/05/03 06:04:37;;;;;;;1.20;1.03;;;13.90;99.90;;;;;;5445542;26;20821;-82
2024/05/03 06:07:03;;;;;;;1.30;0.97;;;13.90;99.90;;;;;;5443927;26;20746;-82
2024/05/03 06:09:28;;;;;;;1.33;0.97;;;13.90;99.90;;;;;;5445513;26;20277;-81
2024/05/03 06:11:54;;;;;;;2.33;0.73;;;13.90;99.90;;;;;;5445562;26;20244;-81
2024/05/03 06:14:19;;;;;;;2.03;0.90;;;13.80;99.90;;;;;;5444145;26;20233;-80
2024/05/03 06:16:47;;;;;;;2.43;0.70;;;13.80;99.90;;;;;;5444581;26;20244;-81
2024/05/03 06:19:13;;;;;;;0.90;0.80;;;13.70;99.90;;;;;;5446821;26;20246;-80
2024/05/03 06:21:38;;;;;;;1.90;0.70;;;13.60;99.90;;;;;;5447019;26;20260;-81
2024/05/03 06:24:04;;;;;;;0.93;0.57;;;13.60;99.90;;;;;;5449197;26;20242;-81
2024/05/03 06:26:30;;;;;;;1.37;0.70;;;13.50;99.90;;;;;;5413657;26;20295;-81
2024/05/03 06:28:55;;;;;;;2.40;0.70;;;13.50;99.90;;;;;;5445578;26;20348;-81
2024/05/03 06:31:21;;;;;;;0.70;0.67;;;13.50;99.90;;;;;;5414741;26;20369;-81
2024/05/03 06:33:47;;;;;;;1.03;0.80;;;13.60;99.90;;;;;;5445768;26;20331;-81
2024/05/03 06:36:12;;;;;;;0.80;0.80;;;13.60;99.90;;;;;;5417229;26;20587;-82
2024/05/03 06:38:38;;;;;;;0.80;0.80;;;13.70;99.90;;;;;;5445072;26;20611;-81
2024/05/03 06:41:05;;;;;;;0.70;0.60;;;13.60;99.90;;;;;;5448717;26;20238;-80
2024/05/03 06:43:32;;;;;;;0.60;0.60;;;13.70;99.90;;;;;;5446298;26;20238;-80
2024/05/03 06:45:59;;;;;;;1.07;0.60;;;13.80;99.90;;;;;;5445256;26;20337;-82
2024/05/03 06:48:27;;;;;;;0.70;0.70;;;13.70;99.90;;;;;;5430667;26;20251;-82
2024/05/03 06:50:53;;;;;;;1.43;0.93;;;13.70;99.90;;;;;;5414201;26;20555;-79
2024/05/03 06:53:18;;;;;;;1.20;0.60;;;13.80;99.90;;;;;;5414817;26;20302;-80
2024/05/03 06:55:44;;;;;;;0.67;0.63;;;13.80;99.90;;;;;;5448394;26;20249;-79
2024/05/03 06:58:10;;;;;;;0.70;0.70;;;13.80;99.90;;;;;;5447703;26;20774;-79
2024/05/03 07:00:35;;;;;;;2.73;0.97;;;13.80;99.90;;;;;;5432949;26;20262;-80
2024/05/03 07:03:01;;;;;;;2.40;0.97;;;13.80;99.90;;;;;;5449019;26;20762;-79
2024/05/03 07:05:26;;;;;;;1.00;0.90;;;13.80;99.90;;;;;;5449378;26;20318;-79
2024/05/03 07:07:52;;;;;;;1.20;1.10;;;13.80;99.90;;;;;;5446684;26;20246;-80
2024/05/03 07:10:17;;;;;;;0.97;0.87;;;13.90;99.90;;;;;;5433806;26;20242;-80
2024/05/03 07:12:43;;;;;;;1.63;1.00;;;13.90;99.90;;;;;;5410594;26;20242;-80
2024/05/03 07:15:08;;;;;;;1.27;0.97;;;14.00;99.90;;;;;;5410945;26;20318;-80
2024/05/03 07:17:35;;;;;;;3.40;1.07;;;13.90;99.90;;;;;;5411038;26;20275;-80
2024/05/03 07:20:01;;;;;;;1.13;0.93;;;13.90;99.90;;;;;;5410485;26;20655;-79
2024/05/03 07:22:27;;;;;;;6.07;1.00;;;13.90;99.90;;;;;;5444933;26;20371;-79
2024/05/03 07:24:52;;;;;;;1.10;0.90;;;13.90;99.90;;;;;;5448755;26;20824;-80
2024/05/03 07:27:18;;;;;;;2.40;1.47;;;13.90;99.90;;;;;;5446233;26;20773;-80
2024/05/03 07:29:43;;;;;;;2.40;1.50;;;13.90;99.90;;;;;;5411463;26;20348;-80
2024/05/03 07:32:15;;;;;;;2.30;1.60;;;13.90;99.90;;;;;;5412089;26;20273;-80
2024/05/03 07:34:40;;;;;;;2.03;1.50;;;13.90;99.90;;;;;;5440422;26;20260;-80
2024/05/03 07:37:06;;;;;;;2.53;1.13;;;13.90;99.90;;;;;;5410141;26;20256;-80
2024/05/03 07:39:31;;;;;;;2.63;1.10;;;14.00;99.90;;;;;;5444587;26;20289;-80
2024/05/03 07:41:57;;;;;;;3.40;1.70;;;13.90;99.90;;;;;;5411361;26;20247;-80
2024/05/03 07:44:22;;;;;;;2.60;1.23;;;13.90;99.90;;;;;;5441911;26;20242;-80
2024/05/03 07:46:48;;;;;;;3.53;1.30;;;14.10;99.90;;;;;;5445803;26;20788;-80
2024/05/03 07:49:16;;;;;;;1.77;1.40;;;14.00;99.90;;;;;;5408900;26;20550;-79
2024/05/03 07:51:41;;;;;;;1.47;1.20;;;14.00;99.90;;;;;;5446498;26;20250;-82
2024/05/03 07:54:07;;;;;;;1.60;0.97;;;14.00;99.90;;;;;;5412657;26;20294;-80
2024/05/03 07:56:34;;;;;;;2.83;1.33;;;13.80;99.90;;;;;;5446499;26;20242;-80
2024/05/03 07:59:00;;;;;;;1.00;0.90;;;13.80;99.90;;;;;;5448027;26;20239;-79
2024/05/03 08:01:28;;;;;;;2.53;1.30;;;13.70;99.90;;;;;;5445527;26;20404;-81
2024/05/03 08:03:54;;;;;;;3.10;1.57;;;13.60;99.90;;;;;;5447554;26;20266;-81
2024/05/03 08:06:19;;;;;;;3.53;1.53;;;13.60;99.90;;;;;;5446354;26;20322;-81
2024/05/03 08:08:45;;;;;;;3.40;1.70;;;13.60;99.90;;;;;;5447718;26;20292;-81
2024/05/03 08:11:10;;;;;;;4.60;1.77;;;13.50;99.90;;;;;;5446492;26;20246;-81
2024/05/03 08:13:36;;;;;;;3.47;1.73;;;13.50;99.90;;;;;;5445491;26;20785;-81
2024/05/03 08:16:02;;;;;;;4.73;1.93;;;13.50;99.90;;;;;;5409049;26;20301;-81
2024/05/03 08:18:28;;;;;;;3.67;1.90;;;13.60;99.90;;;;;;5425421;26;20791;-79
2024/05/03 08:20:54;;;;;;;3.33;1.40;;;13.50;99.90;;;;;;5410153;26;20261;-82
2024/05/03 08:23:20;;;;;;;2.87;2.20;;;13.50;99.90;;;;;;5446175;26;20284;-81
2024/05/03 08:25:46;;;;;;;2.77;1.90;;;13.50;99.90;;;;;;5410054;26;20245;-81
2024/05/03 08:28:11;;;;;;;3.37;2.27;;;13.50;99.90;;;;;;5447384;26;20779;-80
2024/05/03 08:30:38;;;;;;;3.47;2.27;;;13.50;99.90;;;;;;5428915;26;20851;-80
2024/05/03 08:33:04;;;;;;;3.63;2.37;;;13.50;99.90;;;;;;5418095;26;20281;-80
2024/05/03 08:35:30;;;;;;;4.60;2.17;;;13.60;99.90;;;;;;5446586;26;20238;-81
2024/05/03 08:37:55;;;;;;;3.40;2.30;;;13.50;99.90;;;;;;5409222;26;20284;-81
2024/05/03 08:40:21;;;;;;;10.50;2.70;;;13.60;99.90;;;;;;5442902;26;20780;-81
2024/05/03 08:43:19;;;;;;;7.63;2.60;;;13.60;99.90;;;;;;5409238;26;20246;-81
2024/05/03 08:45:52;;;;;;;6.37;2.23;;;13.60;99.90;;;;;;5421149;26;20720;-81
2024/05/03 08:48:19;;;;;;;6.30;2.77;;;13.60;99.90;;;;;;5437534;26;20327;-80
2024/05/03 08:50:52;;;;;;;6.83;2.43;;;13.60;99.90;;;;;;5407730;26;20266;-80
2024/05/03 08:53:51;;;;;;;3.77;2.17;;;13.60;99.90;;;;;;5444317;26;20245;-81
2024/05/03 08:56:17;;;;;;;4.43;2.20;;;13.70;99.90;;;;;;5445743;26;20698;-79
2024/05/03 08:58:44;;;;;;;4.00;2.17;;;13.60;99.90;;;;;;5443983;26;20277;-81
2024/05/03 09:01:10;;;;;;;5.80;2.07;;;13.60;99.90;;;;;;5410908;26;20249;-81
2024/05/03 09:03:36;;;;;;;6.63;2.63;;;13.70;99.90;;;;;;5409049;26;20266;-82
2024/05/03 09:06:02;;;;;;;6.43;2.43;;;13.70;99.90;;;;;;5447823;26;20237;-80
2024/05/03 09:08:37;;;;;;;5.67;2.30;;;13.70;99.90;;;;;;5452750;26;20240;-81
2024/05/03 09:11:06;;;;;;;5.33;2.60;;;13.80;99.90;;;;;;5407517;26;20254;-80
2024/05/03 09:13:32;;;;;;;3.70;1.90;;;13.70;99.90;;;;;;5407053;26;20283;-80
2024/05/03 09:15:58;;;;;;;3.80;2.13;;;13.70;99.90;;;;;;5442485;26;20237;-80
2024/05/03 09:18:23;;;;;;;3.73;2.10;;;13.70;99.90;;;;;;5407258;26;20289;-79
2024/05/03 09:20:49;;;;;;;6.40;2.40;;;13.70;99.90;;;;;;5408116;26;20248;-79
2024/05/03 09:23:17;;;;;;;5.60;2.37;;;13.80;99.90;;;;;;5407674;26;20742;-79
2024/05/03 09:25:43;;;;;;;5.13;2.57;;;13.70;99.90;;;;;;5445881;26;20238;-80
2024/05/03 09:28:08;;;;;;;6.93;2.27;;;13.80;99.90;;;;;;5445525;26;20356;-81
2024/05/03 09:30:43;;;;;;;7.87;2.53;;;13.80;99.90;;;;;;5443961;26;20294;-79
2024/05/03 09:33:10;;;;;;;4.13;2.30;;;13.70;99.90;;;;;;5445952;26;20401;-81
2024/05/03 09:35:36;;;;;;;7.87;2.20;;;13.70;99.90;;;;;;5446425;26;20237;-80
2024/05/03 09:38:02;;;;;;;3.67;1.83;;;13.80;99.90;;;;;;5409104;26;20258;-80
2024/05/03 09:40:27;;;;;;;5.17;2.00;;;13.80;99.90;;;;;;5442019;26;20288;-81
2024/05/03 09:42:53;;;;;;;3.90;2.10;;;13.70;99.90;;;;;;5445984;26;20252;-80
2024/05/03 09:45:19;;;;;;;6.73;2.23;;;13.60;99.90;;;;;;5439753;26;20235;-79
2024/05/03 09:47:47;;;;;;;4.37;2.27;;;13.70;99.90;;;;;;5443579;26;20258;-81
2024/05/03 09:50:17;;;;;;;3.90;1.70;;;13.70;99.90;;;;;;5443274;26;20338;-80
2024/05/03 09:52:53;;;;;;;2.63;1.60;;;13.80;99.90;;;;;;5406844;26;20709;-81
2024/05/03 09:55:26;;;;;;;3.13;2.03;;;13.70;99.90;;;;;;5442912;26;20265;-80
2024/05/03 09:57:52;;;;;;;5.63;1.80;;;13.80;99.90;;;;;;5407930;26;20236;-79
2024/05/03 10:00:22;;;;;;;3.33;1.73;;;13.80;99.90;;;;;;5410952;26;20322;-80
2024/05/03 10:03:14;;;;;;;3.90;1.87;;;13.90;99.90;;;;;;5408976;26;20602;-80
2024/05/03 10:05:41;;;;;;;3.17;1.57;;;13.80;99.90;;;;;;5412352;26;20282;-81
2024/05/03 10:08:07;;;;;;;4.23;1.73;;;13.90;99.90;;;;;;5410341;26;20240;-80
2024/05/03 10:10:34;;;;;;;3.10;1.30;;;13.90;99.90;;;;;;5450373;26;20296;-81
2024/05/03 10:13:00;;;;;;;4.33;1.80;;;13.90;99.90;;;;;;5451338;26;20323;-81
2024/05/03 10:15:26;;;;;;;2.27;1.50;;;13.90;99.90;;;;;;5443374;26;20327;-80
2024/05/03 10:17:53;;;;;;;3.40;1.73;;;13.90;99.90;;;;;;5408197;26;20256;-81
2024/05/03 10:20:29;;;;;;;3.33;1.80;;;13.90;99.90;;;;;;5410214;26;20241;-80
2024/05/03 10:22:58;;;;;;;4.00;2.00;;;13.90;99.90;;;;;;5443312;26;20266;-81
2024/05/03 10:25:25;;;;;;;6.50;2.17;;;14.00;99.90;;;;;;5443090;26;20855;-80
2024/05/03 10:27:56;;;;;;;3.67;1.83;;;14.00;99.90;;;;;;5408807;26;20243;-80
2024/05/03 10:30:22;;;;;;;4.70;1.77;;;14.00;99.90;;;;;;5441841;26;20276;-80
2024/05/03 10:32:48;;;;;;;3.83;1.93;;;14.00;99.90;;;;;;5444789;26;20546;-80
2024/05/03 10:35:21;;;;;;;3.73;1.67;;;14.00;99.90;;;;;;5440794;26;20242;-81
2024/05/03 10:37:47;;;;;;;4.50;2.33;;;14.20;99.90;;;;;;5444357;26;20229;-81
2024/05/03 10:40:13;;;;;;;3.27;1.93;;;14.10;99.90;;;;;;5443437;26;20290;-81
2024/05/03 10:42:39;;;;;;;3.90;2.67;;;14.00;99.90;;;;;;5408022;26;20288;-80
2024/05/03 10:45:05;;;;;;;8.83;2.70;;;14.00;99.90;;;;;;5438278;26;20269;-80
2024/05/03 10:47:31;;;;;;;7.87;2.50;;;14.10;99.90;;;;;;5410195;26;20284;-81
2024/05/03 10:49:57;;;;;;;5.13;2.30;;;14.00;99.90;;;;;;5446418;26;20265;-80
2024/05/03 10:52:22;;;;;;;3.10;2.10;;;14.00;99.90;;;;;;5445435;26;20252;-82
2024/05/03 10:54:48;;;;;;;6.53;3.57;;;14.10;99.90;;;;;;5443101;26;20812;-81
2024/05/03 10:57:15;;;;;;;5.13;2.90;;;14.10;99.90;;;;;;5408765;26;20271;-80
2024/05/03 10:59:47;;;;;;;4.13;2.63;;;14.10;99.90;;;;;;5443686;26;20366;-81
2024/05/03 11:02:13;;;;;;;6.60;2.20;;;14.20;99.90;;;;;;5408612;26;20274;-81
2024/05/03 11:04:39;;;;;;;5.33;2.13;;;14.20;99.90;;;;;;5443211;26;20250;-79
2024/05/03 11:07:04;;;;;;;4.13;2.70;;;14.20;99.90;;;;;;5412081;26;20272;-81
2024/05/03 11:09:30;;;;;;;3.67;2.00;;;14.20;99.90;;;;;;5445231;26;20262;-80
2024/05/03 11:11:56;;;;;;;2.80;2.37;;;14.10;99.90;;;;;;5431373;26;20296;-79
2024/05/03 11:14:22;;;;;;;7.10;2.13;;;14.00;99.90;;;;;;5410644;26;20303;-81
2024/05/03 11:16:47;;;;;;;7.57;2.30;;;14.10;99.90;;;;;;5415525;26;20759;-78
2024/05/03 11:19:13;;;;;;;3.53;2.20;;;14.10;99.90;;;;;;5449870;26;20319;-81
2024/05/03 11:21:46;;;;;;;6.10;2.13;;;14.20;99.90;;;;;;5411735;26;20722;-81
2024/05/03 11:24:21;;;;;;;2.93;1.60;;;14.20;99.90;;;;;;5445288;26;20246;-80
2024/05/03 11:26:47;;;;;;;4.00;2.00;;;14.00;99.90;;;;;;5410572;26;20227;-80
2024/05/03 11:29:12;;;;;;;4.30;2.20;;;14.00;99.90;;;;;;5447123;26;20342;-79
2024/05/03 11:31:38;;;;;;;3.50;1.80;;;14.00;99.90;;;;;;5445744;26;20245;-80
2024/05/03 11:34:05;;;;;;;2.67;1.80;;;14.10;99.90;;;;;;5411525;26;20267;-80
2024/05/03 11:36:31;;;;;;;4.83;1.57;;;14.10;99.90;;;;;;5447183;26;20246;-80
2024/05/03 11:39:00;;;;;;;3.70;1.90;;;14.10;99.90;;;;;;5411293;26;20458;-80
2024/05/03 11:41:25;;;;;;;4.23;1.77;;;14.20;99.90;;;;;;5447647;26;20249;-81
2024/05/03 11:43:51;;;;;;;2.67;1.70;;;14.30;99.90;;;;;;5418429;26;20532;-80
2024/05/03 11:46:17;;;;;;;3.47;1.90;;;14.30;99.90;;;;;;5446459;26;20235;-80
2024/05/03 11:48:42;;;;;;;4.97;1.87;;;14.40;99.90;;;;;;5428494;26;20276;-81
2024/05/03 11:51:08;;;;;;;2.80;1.67;;;14.40;99.90;;;;;;5410922;26;20282;-83
2024/05/03 11:53:33;;;;;;;3.43;1.60;;;14.40;99.90;;;;;;5445089;26;20282;-83
2024/05/03 11:55:59;;;;;;;2.80;1.40;;;14.40;99.90;;;;;;5437903;26;20251;-81
2024/05/03 11:58:24;;;;;;;5.63;2.13;;;14.40;99.90;;;;;;5413687;26;20252;-81
2024/05/03 12:00:52;;;;;;;7.03;1.97;;;14.40;99.90;;;;;;5409734;26;20240;-81
2024/05/03 12:03:18;;;;;;;3.17;1.97;;;14.40;99.90;;;;;;5444949;26;20332;-81
2024/05/03 12:05:44;;;;;;;3.87;2.00;;;14.30;99.90;;;;;;5410666;26;20248;-81
2024/05/03 12:08:09;;;;;;;4.33;2.03;;;14.30;99.90;;;;;;5446067;26;20251;-81
2024/05/03 12:10:35;;;;;;;3.10;2.03;;;14.30;99.90;;;;;;5447502;26;20239;-81
2024/05/03 12:13:00;;;;;;;6.33;2.70;;;14.40;99.90;;;;;;5446533;26;20278;-81
2024/05/03 12:15:27;;;;;;;4.80;2.00;;;14.50;99.90;;;;;;5408759;26;20503;-81
2024/05/03 12:17:53;;;;;;;5.20;2.20;;;14.50;99.90;;;;;;5436178;26;20248;-83
2024/05/03 12:20:18;;;;;;;5.77;1.90;;;14.50;99.90;;;;;;5424841;26;20270;-80
2024/05/03 12:22:44;;;;;;;3.93;2.27;;;14.40;99.90;;;;;;5446330;26;20285;-82
2024/05/03 12:25:09;;;;;;;2.70;2.00;;;14.40;99.90;;;;;;5446260;26;20251;-81
2024/05/03 12:27:35;;;;;;;6.57;2.40;;;14.40;99.90;;;;;;5446247;26;20252;-80
2024/05/03 12:30:00;;;;;;;5.00;2.57;;;14.40;99.90;;;;;;5445365;26;20243;-80
2024/05/03 12:32:26;;;;;;;4.33;2.43;;;14.40;99.90;;;;;;5410413;26;20244;-81
2024/05/03 12:34:51;;;;;;;4.27;2.40;;;14.30;99.90;;;;;;5443836;26;20301;-81
2024/05/03 12:37:17;;;;;;;6.53;2.60;;;14.50;99.90;;;;;;5445788;26;20236;-81
2024/05/03 12:39:42;;;;;;;4.27;2.40;;;14.40;99.90;;;;;;5410213;26;20287;-80
2024/05/03 12:42:08;;;;;;;4.43;2.23;;;14.40;99.90;;;;;;5445434;26;20239;-82